Time;durP1;ratioP1;P1;durP2;ratioP2;P2;SDS_P1;SDS_P2;PMS_P1;PMS_P2;Temp;Humidity;BMP_temperature;BMP_pressure;BME280_temperature;BME280_humidity;BME280_pressure;Samples;Min_cycle;Max_cycle;Signal;HPM_P1;HPM_P2
2023/04/10 00:00:55;;;;;;;29.30;13.73;;;;;;;5.19;89.35;96123.13;4973751;28;20027;-72
2023/04/10 00:03:22;;;;;;;29.08;13.88;;;;;;;5.16;89.77;96122.38;4969172;28;20491;-72
2023/04/10 00:05:48;;;;;;;16.40;9.70;;;;;;;5.13;89.55;96119.97;4971834;28;20786;-72
2023/04/10 00:08:13;;;;;;;16.42;9.35;;;;;;;5.14;89.45;96126.06;4954331;28;20038;-72
2023/04/10 00:10:39;;;;;;;15.43;8.43;;;;;;;5.13;89.06;96125.19;4972657;28;20035;-72
2023/04/10 00:13:04;;;;;;;15.48;8.82;;;;;;;5.13;88.82;96114.75;4952820;28;20477;-72
2023/04/10 00:15:30;;;;;;;11.10;7.18;;;;;;;5.15;88.80;96125.94;4969645;28;20153;-72
2023/04/10 00:17:55;;;;;;;16.00;8.95;;;;;;;5.09;89.55;96115.91;4951378;28;20157;-72
2023/04/10 00:20:22;;;;;;;11.90;8.20;;;;;;;5.03;89.75;96111.06;4970569;28;20108;-72
2023/04/10 00:22:48;;;;;;;11.05;7.00;;;;;;;5.02;90.06;96107.59;4969286;28;20516;-72
2023/04/10 00:25:13;;;;;;;10.23;6.35;;;;;;;4.97;91.14;96111.44;4971243;28;20818;-72
2023/04/10 00:27:39;;;;;;;10.93;6.63;;;;;;;4.96;90.33;96107.16;4967450;28;20027;-72
2023/04/10 00:30:05;;;;;;;8.65;5.72;;;;;;;4.91;90.50;96101.41;4957968;28;20030;-72
2023/04/10 00:32:30;;;;;;;8.30;5.75;;;;;;;4.85;90.55;96106.06;4952866;28;20040;-72
2023/04/10 00:34:56;;;;;;;9.40;5.88;;;;;;;4.84;nan;96100.94;4966847;28;20031;-72
2023/04/10 00:37:21;;;;;;;7.13;5.85;;;;;;;4.81;90.79;96107.19;4963163;28;20043;-72
2023/04/10 00:39:46;;;;;;;8.60;5.03;;;;;;;4.78;90.53;96104.78;4975054;28;20050;-72
2023/04/10 00:42:12;;;;;;;5.85;5.03;;;;;;;4.76;91.07;96100.59;4965228;28;20477;-72
2023/04/10 00:44:37;;;;;;;5.72;4.93;;;;;;;4.73;91.23;96102.47;4968044;28;20468;-72
2023/04/10 00:47:04;;;;;;;9.45;6.50;;;;;;;4.73;91.10;96097.25;4970214;28;20570;-72
2023/04/10 00:49:30;;;;;;;8.32;6.28;;;;;;;4.71;91.83;96106.94;4968779;28;20027;-71
2023/04/10 00:51:55;;;;;;;5.22;4.72;;;;;;;4.71;90.64;96113.91;4971484;28;20073;-72
2023/04/10 00:54:22;;;;;;;6.45;4.72;;;;;;;4.68;90.83;96106.28;4956621;28;20034;-72
2023/04/10 00:56:49;;;;;;;5.22;4.75;;;;;;;4.65;90.95;96111.69;4966827;28;20027;-72
2023/04/10 00:59:15;;;;;;;5.72;5.10;;;;;;;4.62;92.19;96115.31;4973292;28;20136;-72
2023/04/10 01:01:40;;;;;;;4.93;4.45;;;;;;;4.61;91.71;96112.81;4972222;28;20022;-74
2023/04/10 01:04:07;;;;;;;5.97;5.25;;;;;;;4.60;91.63;96114.56;4971595;28;20502;-73
2023/04/10 01:07:06;;;;;;;5.70;5.10;;;;;;;4.57;92.70;96117.38;4972354;28;20031;-74
2023/04/10 01:09:43;;;;;;;5.35;4.95;;;;;;;4.58;91.89;96109.47;4962451;28;20071;-72
2023/04/10 01:12:15;;;;;;;7.25;4.43;;;;;;;4.58;91.65;96113.84;4967154;28;20027;-73
2023/04/10 01:14:55;;;;;;;5.15;4.63;;;;;;;4.55;92.25;96106.22;4970495;28;20114;-74
2023/04/10 01:17:56;;;;;;;4.88;4.47;;;;;;;4.53;93.08;96111.53;4964774;28;20047;-73
2023/04/10 01:20:28;;;;;;;7.40;4.93;;;;;;;4.51;92.13;96107.34;4948981;28;20038;-73
2023/04/10 01:23:15;;;;;;;4.97;4.20;;;;;;;4.44;92.14;96102.50;4968639;28;20106;-74
2023/04/10 01:25:52;;;;;;;9.38;5.38;;;;;;;4.39;93.17;96103.72;4976929;28;20015;-74
2023/04/10 01:28:24;;;;;;;4.53;4.22;;;;;;;4.38;93.20;96109.84;4972183;28;20100;-73
2023/04/10 01:30:56;;;;;;;4.10;3.80;;;;;;;4.32;93.08;96107.63;4977920;28;20034;-73
2023/04/10 01:33:28;;;;;;;4.10;3.80;;;;;;;4.34;92.42;96111.81;4969698;28;20086;-73
2023/04/10 01:35:56;;;;;;;10.60;4.15;;;;;;;4.36;92.19;96106.50;4968800;28;20242;-73
2023/04/10 01:38:25;;;;;;;4.60;4.00;;;;;;;4.33;93.28;96106.69;4969619;28;20022;-74
2023/04/10 01:40:53;;;;;;;4.55;4.18;;;;;;;4.27;93.63;96095.69;4974027;28;20651;-75
2023/04/10 01:43:19;;;;;;;4.30;4.00;;;;;;;4.26;93.15;96096.63;4958780;28;20015;-74
2023/04/10 01:45:47;;;;;;;4.43;4.13;;;;;;;4.24;93.50;96085.44;4958868;28;20015;-73
2023/04/10 01:48:15;;;;;;;4.85;4.40;;;;;;;4.18;93.81;96087.59;4974768;28;20626;-73
2023/04/10 01:50:40;;;;;;;4.88;4.47;;;;;;;4.10;94.99;96088.91;4970722;28;20130;-73
2023/04/10 01:53:06;;;;;;;7.05;6.45;;;;;;;4.00;96.22;96085.19;4970045;28;20054;-73
2023/04/10 01:55:33;;;;;;;5.95;5.50;;;;;;;4.01;95.87;96077.25;4971715;28;20038;-73
2023/04/10 01:58:00;;;;;;;5.25;4.82;;;;;;;4.01;95.70;96079.03;4975294;28;20058;-73
2023/04/10 02:00:26;;;;;;;4.68;4.38;;;;;;;4.03;95.41;96081.53;4975451;28;20136;-73
2023/04/10 02:02:52;;;;;;;4.35;4.05;;;;;;;4.09;94.38;96081.16;4972338;28;20095;-73
2023/04/10 02:05:18;;;;;;;4.38;4.15;;;;;;;4.14;93.59;96085.16;4974313;28;20475;-74
2023/04/10 02:07:46;;;;;;;5.65;4.07;;;;;;;4.15;93.91;96080.81;4977478;28;20038;-74
2023/04/10 02:10:30;;;;;;;4.47;4.18;;;;;;;4.09;94.49;96076.78;4955921;28;20027;-73
2023/04/10 02:13:06;;;;;;;4.80;4.40;;;;;;;4.05;94.63;96077.06;4974291;28;20034;-73
2023/04/10 02:15:34;;;;;;;5.15;4.75;;;;;;;4.03;94.67;96076.31;4974916;28;20130;-73
2023/04/10 02:18:05;;;;;;;5.90;5.38;;;;;;;4.03;94.79;96082.38;4971074;28;20031;-74
2023/04/10 02:20:31;;;;;;;8.75;5.22;;;;;;;4.08;94.33;96084.69;4974789;28;20065;-74
2023/04/10 02:23:00;;;;;;;5.13;4.72;;;;;;;4.08;93.62;96079.47;4956770;28;20038;-74
2023/04/10 02:25:26;;;;;;;4.55;4.20;;;;;;;4.07;92.93;96078.66;4974444;28;20054;-74
2023/04/10 02:27:52;;;;;;;4.60;4.30;;;;;;;4.08;92.72;96084.69;4959412;28;20085;-74
2023/04/10 02:30:17;;;;;;;4.97;4.60;;;;;;;4.05;92.95;96084.88;4977215;28;20785;-74
2023/04/10 02:32:42;;;;;;;5.53;5.13;;;;;;;4.01;93.13;96087.69;4970039;28;20475;-74
2023/04/10 02:35:08;;;;;;;5.57;5.07;;;;;;;3.97;94.36;96088.78;4966250;28;20587;-74
2023/04/10 02:37:34;;;;;;;5.03;4.63;;;;;;;3.93;93.31;96086.44;4975839;28;20034;-74
2023/04/10 02:40:00;;;;;;;4.43;4.13;;;;;;;3.84;92.37;96088.69;4971014;28;20026;-73
2023/04/10 02:42:26;;;;;;;5.43;4.68;;;;;;;3.79;92.96;96101.16;4957600;28;20578;-74
2023/04/10 02:44:51;;;;;;;4.22;3.92;;;;;;;3.80;92.94;96112.38;4973184;28;20030;-74
2023/04/10 02:47:17;;;;;;;6.40;4.47;;;;;;;3.72;93.16;96111.09;4966261;28;20215;-74
2023/04/10 02:49:43;;;;;;;4.43;4.13;;;;;;;3.69;93.87;96105.19;4964561;28;20102;-74
2023/04/10 02:52:08;;;;;;;4.60;4.30;;;;;;;3.65;94.11;96109.78;4973991;28;20483;-74
2023/04/10 02:54:33;;;;;;;4.40;4.10;;;;;;;3.65;93.28;96120.19;4956985;28;20447;-73
2023/04/10 02:57:00;;;;;;;4.55;3.85;;;;;;;3.59;93.03;96123.13;4974578;28;20089;-73
2023/04/10 02:59:26;;;;;;;4.40;4.13;;;;;;;3.56;93.47;96124.16;4971232;28;20109;-74
2023/04/10 03:01:52;;;;;;;4.20;3.90;;;;;;;3.56;93.25;96123.31;4973439;28;20034;-74
2023/04/10 03:04:18;;;;;;;4.53;4.22;;;;;;;3.55;93.67;96127.69;4974138;28;20053;-73
2023/04/10 03:06:44;;;;;;;4.35;3.95;;;;;;;3.50;93.43;96124.47;4974580;28;20030;-74
2023/04/10 03:09:09;;;;;;;4.35;3.65;;;;;;;3.44;94.69;96124.84;4965829;28;20096;-74
2023/04/10 03:11:35;;;;;;;4.18;3.90;;;;;;;3.42;94.27;96124.91;4974099;28;20372;-73
2023/04/10 03:14:00;;;;;;;3.97;3.78;;;;;;;3.38;94.71;96120.00;4964698;28;20058;-74
2023/04/10 03:16:26;;;;;;;4.70;4.40;;;;;;;3.36;95.03;96122.66;4976544;28;20404;-74
2023/04/10 03:18:52;;;;;;;5.25;4.75;;;;;;;3.37;95.09;96126.94;4976946;28;20463;-74
2023/04/10 03:21:18;;;;;;;7.38;6.78;;;;;;;3.35;94.96;96126.19;4976347;28;20031;-74
2023/04/10 03:23:43;;;;;;;4.90;4.45;;;;;;;3.32;95.04;96118.56;4969546;28;20037;-74
2023/04/10 03:26:09;;;;;;;5.45;4.88;;;;;;;3.30;95.41;96126.44;4959152;28;20034;-75
2023/04/10 03:28:35;;;;;;;4.63;4.30;;;;;;;3.27;95.73;96126.63;4976367;28;20030;-74
2023/04/10 03:31:02;;;;;;;4.45;4.15;;;;;;;3.21;95.81;96123.56;4970202;28;20035;-74
2023/04/10 03:33:27;;;;;;;4.50;4.20;;;;;;;3.17;95.91;96122.03;4976424;28;20039;-74
2023/04/10 03:35:53;;;;;;;5.05;4.55;;;;;;;3.15;96.57;96122.13;4975986;28;20084;-74
2023/04/10 03:38:18;;;;;;;4.60;4.30;;;;;;;3.15;96.80;96128.16;4972320;28;20090;-74
2023/04/10 03:40:43;;;;;;;10.65;9.13;;;;;;;3.08;96.97;96126.81;4955410;28;20506;-74
2023/04/10 03:43:09;;;;;;;9.73;8.35;;;;;;;3.04;97.96;96114.91;4958198;28;20537;-74
2023/04/10 03:45:34;;;;;;;11.48;9.25;;;;;;;3.04;97.66;96117.53;4978151;28;20029;-75
2023/04/10 03:48:00;;;;;;;20.25;13.32;;;;;;;3.06;97.15;96118.28;4975359;28;20398;-74
2023/04/10 03:50:25;;;;;;;15.55;11.07;;;;;;;3.09;96.79;96125.06;4957627;28;20034;-74
2023/04/10 03:52:51;;;;;;;13.63;11.32;;;;;;;3.09;96.95;96122.44;4975808;28;20069;-74
2023/04/10 03:55:17;;;;;;;11.60;10.00;;;;;;;3.05;97.43;96116.59;4976170;28;20140;-74
2023/04/10 03:57:45;;;;;;;9.10;8.05;;;;;;;3.03;96.81;96123.66;4968944;28;20054;-75
2023/04/10 04:00:11;;;;;;;8.43;7.63;;;;;;;3.01;96.54;96115.91;4965695;28;20066;-74
2023/04/10 04:02:37;;;;;;;6.07;5.57;;;;;;;3.03;96.85;96120.19;4968203;28;20037;-75
2023/04/10 04:05:02;;;;;;;7.43;6.35;;;;;;;2.99;96.96;96111.75;4968484;28;20027;-74
2023/04/10 04:07:28;;;;;;;6.15;5.63;;;;;;;2.96;96.72;96119.69;4956418;28;20455;-75
2023/04/10 04:09:54;;;;;;;6.70;5.93;;;;;;;2.93;97.01;96118.13;4974755;28;20114;-74
2023/04/10 04:12:19;;;;;;;9.90;5.97;;;;;;;2.94;96.55;96118.94;4970942;28;20654;-74
2023/04/10 04:14:45;;;;;;;6.70;5.97;;;;;;;2.90;97.37;96120.88;4970491;28;20115;-75
2023/04/10 04:17:10;;;;;;;6.70;6.05;;;;;;;2.86;96.60;96117.59;4973265;28;20031;-74
2023/04/10 04:19:36;;;;;;;7.43;5.55;;;;;;;2.86;97.21;96121.94;4975584;28;20034;-74
2023/04/10 04:22:01;;;;;;;5.93;5.43;;;;;;;2.84;97.44;96124.66;4973793;28;20029;-71
2023/04/10 04:24:27;;;;;;;5.90;5.40;;;;;;;2.81;97.80;96124.81;4952517;28;20026;-74
2023/04/10 04:26:52;;;;;;;5.63;5.18;;;;;;;2.81;97.36;96126.56;4975538;28;20113;-75
2023/04/10 04:29:18;;;;;;;5.60;5.10;;;;;;;2.79;96.98;96120.63;4975271;28;20395;-74
2023/04/10 04:31:43;;;;;;;5.20;4.50;;;;;;;2.78;96.84;96121.53;4957817;28;20116;-74
2023/04/10 04:34:09;;;;;;;5.53;4.93;;;;;;;2.78;97.49;96125.00;4971258;28;20173;-74
2023/04/10 04:36:34;;;;;;;5.43;4.40;;;;;;;2.76;97.69;96121.63;4974554;28;20034;-74
2023/04/10 04:38:59;;;;;;;4.97;4.53;;;;;;;2.75;97.72;96119.13;4975258;28;20058;-74
2023/04/10 04:41:25;;;;;;;5.45;5.05;;;;;;;2.71;97.49;96132.28;4975151;28;20019;-75
2023/04/10 04:43:52;;;;;;;4.85;4.45;;;;;;;2.68;98.69;96129.84;4971925;28;20051;-73
2023/04/10 04:46:17;;;;;;;5.32;4.95;;;;;;;2.65;98.88;96134.38;4971292;28;21088;-74
2023/04/10 04:48:43;;;;;;;4.75;4.43;;;;;;;2.66;99.08;96133.44;4973738;28;20023;-74
2023/04/10 04:51:08;;;;;;;5.57;5.13;;;;;;;2.65;100.00;96123.97;4974609;28;20054;-74
2023/04/10 04:53:34;;;;;;;5.90;4.90;;;;;;;2.64;99.46;96127.50;4974988;28;20106;-74
2023/04/10 04:55:59;;;;;;;5.60;4.28;;;;;;;2.62;99.68;96134.53;4972820;28;20046;-74
2023/04/10 04:58:25;;;;;;;5.03;4.72;;;;;;;2.62;99.47;96130.16;4972808;28;20027;-74
2023/04/10 05:00:51;;;;;;;7.20;6.70;;;;;;;2.65;99.32;96130.03;4968334;28;20038;-74
2023/04/10 05:03:16;;;;;;;9.77;8.77;;;;;;;2.66;98.44;96136.03;4978483;28;20045;-73
2023/04/10 05:05:42;;;;;;;9.32;8.52;;;;;;;2.66;98.40;96130.84;4979522;28;20023;-74
2023/04/10 05:08:08;;;;;;;8.80;8.00;;;;;;;2.64;99.47;96135.28;4978744;28;20079;-74
2023/04/10 05:10:33;;;;;;;10.35;9.35;;;;;;;2.62;99.66;96139.75;4961571;28;20118;-74
2023/04/10 05:12:59;;;;;;;11.77;10.13;;;;;;;2.61;99.99;96141.47;4971385;28;20070;-73
2023/04/10 05:15:24;;;;;;;12.55;11.30;;;;;;;2.62;99.64;96143.16;4978488;28;20046;-73
2023/04/10 05:17:51;;;;;;;12.70;10.55;;;;;;;2.61;99.50;96143.25;4968005;28;20023;-72
2023/04/10 05:20:17;;;;;;;9.82;8.73;;;;;;;2.60;100.00;96146.78;4977640;28;20034;-74
2023/04/10 05:22:43;;;;;;;11.00;9.63;;;;;;;2.58;99.32;96150.31;4978637;28;20125;-71
2023/04/10 05:25:08;;;;;;;7.85;7.22;;;;;;;2.57;99.49;96147.78;4977253;28;20110;-71
2023/04/10 05:27:34;;;;;;;7.80;6.75;;;;;;;2.60;99.22;96144.19;4972076;28;20138;-74
2023/04/10 05:29:59;;;;;;;6.63;6.13;;;;;;;2.63;99.28;96150.03;4960035;28;20027;-75
2023/04/10 05:32:25;;;;;;;5.57;4.57;;;;;;;2.68;98.93;96145.44;4973854;28;20391;-75
2023/04/10 05:34:50;;;;;;;5.50;5.10;;;;;;;2.76;97.70;96144.19;4978166;28;20106;-75
2023/04/10 05:37:16;;;;;;;5.32;4.93;;;;;;;2.81;98.57;96139.56;4969128;28;20372;-76
2023/04/10 05:39:41;;;;;;;5.22;4.85;;;;;;;2.83;98.32;96148.13;4976574;28;20443;-75
2023/04/10 05:42:06;;;;;;;5.45;5.07;;;;;;;2.84;98.25;96150.66;4974847;28;20038;-74
2023/04/10 05:44:32;;;;;;;5.82;5.32;;;;;;;2.89;97.65;96149.56;4976204;28;20046;-76
2023/04/10 05:46:57;;;;;;;5.97;5.57;;;;;;;2.95;97.36;96147.47;4976718;28;20039;-79
2023/04/10 05:49:23;;;;;;;6.75;5.60;;;;;;;2.99;97.11;96154.19;4973336;28;20038;-76
2023/04/10 05:51:49;;;;;;;4.88;4.57;;;;;;;2.99;97.12;96158.56;4954819;28;20055;-76
2023/04/10 05:54:15;;;;;;;5.50;5.10;;;;;;;3.10;96.41;96151.00;4971539;28;20084;-75
2023/04/10 05:56:41;;;;;;;5.72;5.32;;;;;;;3.20;96.28;96160.88;4959757;28;20094;-76
2023/04/10 05:59:06;;;;;;;6.45;5.95;;;;;;;3.28;96.80;96158.72;4970326;28;20143;-76
2023/04/10 06:01:32;;;;;;;6.50;6.00;;;;;;;3.33;97.50;96163.66;4972960;28;20027;-76
2023/04/10 06:03:57;;;;;;;5.72;5.32;;;;;;;3.33;97.44;96168.88;4978033;28;20102;-76
2023/04/10 06:06:24;;;;;;;5.72;5.22;;;;;;;3.37;99.14;96167.78;4978043;28;20030;-77
2023/04/10 06:08:50;;;;;;;5.20;4.82;;;;;;;3.35;99.58;96173.06;4956687;28;20023;-77
2023/04/10 06:11:15;;;;;;;5.20;4.80;;;;;;;3.41;99.08;96175.31;4967553;28;20093;-77
2023/04/10 06:13:41;;;;;;;6.60;4.95;;;;;;;3.50;98.24;96178.34;4977736;28;20026;-77
2023/04/10 06:16:07;;;;;;;7.38;5.10;;;;;;;3.57;99.71;96175.31;4960309;28;20066;-77
2023/04/10 06:18:32;;;;;;;5.60;5.20;;;;;;;3.66;98.53;96184.38;4974670;28;20037;-76
2023/04/10 06:21:00;;;;;;;6.60;6.07;;;;;;;3.77;98.79;96173.34;4973735;28;20039;-77
2023/04/10 06:23:28;;;;;;;9.02;8.23;;;;;;;3.92;97.35;96178.56;4970208;28;20026;-77
2023/04/10 06:25:54;;;;;;;9.05;8.25;;;;;;;4.06;95.77;96181.22;4972739;28;20107;-77
2023/04/10 06:28:20;;;;;;;8.00;7.03;;;;;;;4.21;94.37;96181.25;4967981;28;20031;-77
2023/04/10 06:30:45;;;;;;;6.10;5.55;;;;;;;4.33;93.09;96183.13;4973898;28;20462;-77
2023/04/10 06:33:11;;;;;;;6.07;5.50;;;;;;;4.41;92.39;96175.66;4975597;28;20133;-77
2023/04/10 06:35:36;;;;;;;6.57;6.10;;;;;;;4.47;92.23;96178.84;4976935;28;20031;-76
2023/04/10 06:38:02;;;;;;;7.45;6.15;;;;;;;4.54;94.61;96180.16;4968688;28;20077;-76
2023/04/10 06:40:28;;;;;;;22.85;18.80;;;;;;;4.68;93.09;96179.31;4975578;28;20081;-76
2023/04/10 06:42:54;;;;;;;39.72;31.42;;;;;;;5.04;92.10;96183.22;4964850;28;20014;-76
2023/04/10 06:45:20;;;;;;;34.15;30.13;;;;;;;5.65;90.17;96180.25;4977027;28;20480;-76
2023/04/10 06:47:45;;;;;;;52.70;40.38;;;;;;;6.30;88.31;96178.63;4972518;28;20037;-76
2023/04/10 06:50:11;;;;;;;37.17;26.52;;;;;;;6.99;84.68;96179.22;4968811;28;20035;-76
2023/04/10 06:52:36;;;;;;;42.53;34.55;;;;;;;7.55;80.72;96180.50;4960840;28;20018;-76
2023/04/10 06:55:01;;;;;;;22.67;20.35;;;;;;;7.98;73.82;96177.38;4976984;28;20030;-76
2023/04/10 06:57:27;;;;;;;16.50;14.90;;;;;;;8.32;74.28;96185.34;4976991;28;20483;-76
2023/04/10 06:59:53;;;;;;;13.95;12.63;;;;;;;8.68;71.32;96180.06;4976677;28;20034;-76
2023/04/10 07:02:19;;;;;;;16.52;15.02;;;;;;;9.09;71.33;96184.84;4976523;28;20077;-76
2023/04/10 07:04:44;;;;;;;13.95;12.63;;;;;;;9.60;69.60;96183.41;4977119;28;20105;-76
2023/04/10 07:07:12;;;;;;;5.50;5.10;;;;;;;10.18;63.58;96190.16;4969908;28;20457;-77
2023/04/10 07:09:38;;;;;;;6.05;4.78;;;;;;;10.61;64.22;96175.22;4956327;28;20058;-77
2023/04/10 07:12:04;;;;;;;6.53;6.00;;;;;;;11.03;59.75;96183.03;4960791;28;20029;-77
2023/04/10 07:14:33;;;;;;;12.73;6.03;;;;;;;11.38;57.38;96178.28;4976490;28;20042;-77
2023/04/10 07:16:58;;;;;;;5.70;5.07;;;;;;;11.63;59.41;96177.91;4957003;28;20038;-77
2023/04/10 07:19:23;;;;;;;4.65;3.88;;;;;;;11.74;59.45;96178.63;4967649;28;20030;-77
2023/04/10 07:21:49;;;;;;;3.47;3.28;;;;;;;11.74;60.46;96178.63;4958641;28;20058;-77
2023/04/10 07:24:17;;;;;;;2.85;2.60;;;;;;;11.78;59.42;96179.19;4970273;28;20776;-78
2023/04/10 07:26:44;;;;;;;2.78;2.63;;;;;;;12.08;57.80;96173.97;4957546;28;20435;-78
2023/04/10 07:29:10;;;;;;;2.72;2.50;;;;;;;12.15;58.00;96172.41;4963966;28;20452;-78
2023/04/10 07:31:36;;;;;;;2.40;2.30;;;;;;;12.42;56.76;96169.06;4975861;28;20019;-78
2023/04/10 07:34:02;;;;;;;2.80;2.60;;;;;;;12.46;56.36;96173.09;4973221;28;20038;-79
2023/04/10 07:36:27;;;;;;;2.35;2.20;;;;;;;12.37;55.78;96175.72;4969584;28;20015;-79
2023/04/10 07:38:53;;;;;;;2.25;2.15;;;;;;;12.74;51.63;96175.78;4970493;28;20110;-82
2023/04/10 07:41:19;;;;;;;2.67;2.50;;;;;;;12.93;51.19;96167.94;4951411;28;20030;-79
2023/04/10 07:43:45;;;;;;;2.28;2.17;;;;;;;13.37;52.40;96168.16;4970573;28;20022;-80
2023/04/10 07:46:10;;;;;;;2.50;2.40;;;;;;;13.78;49.57;96170.44;4944242;28;20015;-79
2023/04/10 07:48:36;;;;;;;3.65;2.67;;;;;;;13.65;47.35;96168.16;4974514;28;20030;-78
2023/04/10 07:51:01;;;;;;;2.67;2.53;;;;;;;13.80;48.61;96170.28;4957611;28;20097;-78
2023/04/10 07:53:27;;;;;;;2.25;2.10;;;;;;;14.30;48.83;96164.44;4975809;28;20022;-78
2023/04/10 07:55:52;;;;;;;2.60;2.40;;;;;;;14.58;49.00;96160.81;4976069;28;20014;-79
2023/04/10 07:58:18;;;;;;;2.40;2.30;;;;;;;14.93;47.62;96159.09;4975923;28;20031;-78
2023/04/10 08:00:43;;;;;;;2.80;2.60;;;;;;;14.57;48.51;96161.81;4975211;28;20050;-78
2023/04/10 08:03:10;;;;;;;4.63;2.47;;;;;;;14.72;46.88;96165.59;4975808;28;20483;-78
2023/04/10 08:05:36;;;;;;;4.55;2.50;;;;;;;14.92;46.88;96164.53;4974500;28;20019;-79
2023/04/10 08:08:01;;;;;;;2.40;2.20;;;;;;;15.16;47.98;96172.63;4956000;28;20077;-78
2023/04/10 08:10:26;;;;;;;2.50;2.30;;;;;;;15.53;46.22;96160.00;4976159;28;20046;-79
2023/04/10 08:12:52;;;;;;;4.03;2.55;;;;;;;16.07;44.93;96158.78;4975441;28;20027;-78
2023/04/10 08:15:17;;;;;;;4.38;2.30;;;;;;;16.65;43.51;96166.75;4958017;28;20055;-78
2023/04/10 08:17:43;;;;;;;2.80;2.60;;;;;;;16.89;43.64;96163.19;4976021;28;20033;-78
2023/04/10 08:20:09;;;;;;;2.88;2.67;;;;;;;16.86;43.93;96160.88;4976249;28;20107;-78
2023/04/10 08:22:35;;;;;;;2.75;2.47;;;;;;;17.11;43.10;96163.47;4963151;28;20070;-78
2023/04/10 08:25:02;;;;;;;3.05;2.75;;;;;;;17.37;42.21;96164.22;4968043;28;20027;-78
2023/04/10 08:27:27;;;;;;;2.92;2.72;;;;;;;17.45;39.59;96161.50;4958495;28;20023;-78
2023/04/10 08:29:52;;;;;;;3.10;2.38;;;;;;;16.91;41.91;96165.69;4973180;28;20026;-78
2023/04/10 08:32:18;;;;;;;2.33;2.22;;;;;;;17.31;42.00;96163.06;4972654;28;20122;-78
2023/04/10 08:34:43;;;;;;;2.83;2.58;;;;;;;17.72;40.87;96154.88;4963004;28;20459;-78
2023/04/10 08:37:11;;;;;;;2.53;2.42;;;;;;;18.04;39.63;96169.06;4955026;28;20077;-77
2023/04/10 08:39:36;;;;;;;4.72;2.67;;;;;;;18.21;38.95;96155.59;4974668;28;20101;-78
2023/04/10 08:42:02;;;;;;;5.35;2.33;;;;;;;17.85;38.25;96162.31;4963246;28;20054;-77
2023/04/10 08:44:28;;;;;;;2.72;2.53;;;;;;;17.42;39.69;96164.53;4955791;28;20023;-77
2023/04/10 08:46:57;;;;;;;2.35;2.25;;;;;;;18.32;38.53;96162.31;4958214;28;20395;-77
2023/04/10 08:49:38;;;;;;;2.60;2.40;;;;;;;18.21;39.61;96163.56;4975890;28;20175;-77
2023/04/10 08:52:07;;;;;;;2.10;2.00;;;;;;;18.35;37.75;96159.34;4975385;28;20026;-77
2023/04/10 08:54:37;;;;;;;2.30;2.20;;;;;;;19.12;37.28;96167.28;4975675;28;20030;-77
2023/04/10 08:57:05;;;;;;;2.10;2.00;;;;;;;18.95;37.66;96155.94;4975609;28;20480;-77
2023/04/10 08:59:31;;;;;;;2.20;2.10;;;;;;;19.38;36.15;96158.78;4975489;28;20027;-77
2023/04/10 09:01:57;;;;;;;2.30;2.17;;;;;;;19.59;36.49;96165.22;4975571;28;20404;-77
2023/04/10 09:04:24;;;;;;;2.30;2.20;;;;;;;19.58;34.82;96166.22;4975042;28;20155;-77
2023/04/10 09:06:50;;;;;;;2.35;2.15;;;;;;;19.20;35.52;96159.16;4972887;28;20396;-77
2023/04/10 09:09:16;;;;;;;2.13;2.00;;;;;;;19.37;32.58;96170.50;4975249;28;20034;-78
2023/04/10 09:11:50;;;;;;;4.20;2.28;;;;;;;20.09;31.60;96165.34;4977406;28;20023;-78
2023/04/10 09:14:21;;;;;;;2.40;2.20;;;;;;;20.24;32.33;96157.28;4975121;28;20034;-78
2023/04/10 09:16:46;;;;;;;2.08;1.98;;;;;;;20.72;30.45;96169.19;4975108;28;20070;-77
2023/04/10 09:19:11;;;;;;;2.58;2.40;;;;;;;19.20;32.82;96158.34;4975176;28;20031;-77
2023/04/10 09:21:37;;;;;;;2.88;2.13;;;;;;;19.69;31.80;96156.91;4964210;28;20382;-76
2023/04/10 09:24:03;;;;;;;2.40;2.20;;;;;;;19.09;33.33;96155.13;4972700;28;20201;-76
2023/04/10 09:26:30;;;;;;;2.17;2.08;;;;;;;19.15;33.14;96150.88;4975432;28;20211;-76
2023/04/10 09:29:00;;;;;;;2.00;1.90;;;;;;;19.02;32.83;96146.19;4973776;28;20022;-76
2023/04/10 09:31:30;;;;;;;2.20;2.10;;;;;;;19.80;31.10;96158.25;4974179;28;20110;-77
2023/04/10 09:34:10;;;;;;;2.28;2.10;;;;;;;18.90;33.30;96159.97;4971771;28;20086;-76
2023/04/10 09:36:40;;;;;;;2.05;1.90;;;;;;;19.10;32.44;96150.63;4973281;28;20196;-76
2023/04/10 09:39:07;;;;;;;2.30;2.10;;;;;;;19.16;33.83;96149.88;4970819;28;20030;-77
2023/04/10 09:41:46;;;;;;;2.25;2.15;;;;;;;19.72;32.91;96154.66;4975287;28;20567;-76
2023/04/10 09:44:11;;;;;;;3.08;2.25;;;;;;;20.27;31.21;96154.22;4974310;28;20495;-77
2023/04/10 09:46:37;;;;;;;2.30;2.10;;;;;;;19.67;31.95;96145.56;4970210;28;20058;-76
2023/04/10 09:49:06;;;;;;;2.55;2.20;;;;;;;19.99;32.94;96146.94;4971312;28;20113;-77
2023/04/10 09:51:35;;;;;;;5.65;2.10;;;;;;;20.25;31.24;96145.56;4976438;28;20029;-76
2023/04/10 09:54:02;;;;;;;2.40;2.30;;;;;;;19.80;32.60;96142.22;4978268;28;20023;-76
2023/04/10 09:56:35;;;;;;;1.90;1.80;;;;;;;19.83;31.49;96139.97;4956109;28;20054;-75
2023/04/10 09:59:03;;;;;;;4.82;3.08;;;;;;;19.52;31.29;96126.91;4970368;28;20081;-76
2023/04/10 10:01:33;;;;;;;2.05;1.95;;;;;;;18.77;32.26;96127.75;4978547;28;20101;-75
2023/04/10 10:04:02;;;;;;;4.57;2.45;;;;;;;18.73;33.37;96127.28;4961212;28;20077;-76
2023/04/10 10:06:31;;;;;;;2.20;2.10;;;;;;;19.57;32.24;96127.19;4972974;28;20037;-75
2023/04/10 10:09:02;;;;;;;2.30;2.20;;;;;;;19.82;31.46;96129.50;4967726;28;20034;-76
2023/04/10 10:11:30;;;;;;;2.55;2.10;;;;;;;19.61;31.88;96125.78;4977697;28;20033;-76
2023/04/10 10:13:57;;;;;;;2.08;1.98;;;;;;;20.00;30.54;96118.41;4966070;28;20034;-76
2023/04/10 10:16:43;;;;;;;2.60;2.42;;;;;;;19.43;31.51;96113.66;4976091;28;20054;-75
2023/04/10 10:19:15;;;;;;;2.53;2.15;;;;;;;19.54;31.91;96116.84;4975100;28;20096;-76
2023/04/10 10:21:43;;;;;;;2.03;1.92;;;;;;;18.87;33.25;96114.16;4978210;28;20033;-76
2023/04/10 10:24:11;;;;;;;2.45;2.25;;;;;;;18.90;32.87;96111.97;4974253;28;20100;-76
2023/04/10 10:26:39;;;;;;;2.33;2.10;;;;;;;19.46;31.32;96107.94;4977752;28;20078;-75
2023/04/10 10:29:09;;;;;;;2.88;2.42;;;;;;;18.76;32.93;96112.78;4960089;28;20022;-75
2023/04/10 10:31:36;;;;;;;1.90;1.80;;;;;;;18.97;31.61;96108.56;4977520;28;20018;-75
2023/04/10 10:34:04;;;;;;;3.50;2.30;;;;;;;19.01;32.16;96112.53;4976461;28;20051;-76
2023/04/10 10:36:30;;;;;;;2.20;2.10;;;;;;;19.27;31.59;96106.72;4976414;28;20372;-76
2023/04/10 10:39:04;;;;;;;2.28;2.13;;;;;;;19.56;31.92;96114.81;4972945;28;20113;-76
2023/04/10 10:41:39;;;;;;;1.98;1.88;;;;;;;19.46;31.46;96105.28;4958473;28;20019;-75
2023/04/10 10:44:34;;;;;;;3.00;2.80;;;;;;;19.29;30.96;96109.19;4970250;28;20031;-76
2023/04/10 10:47:08;;;;;;;2.28;2.17;;;;;;;18.92;33.61;96101.09;4975770;28;20130;-76
2023/04/10 10:49:53;;;;;;;3.28;3.00;;;;;;;19.48;33.12;96105.09;4973465;28;20102;-76
2023/04/10 10:52:39;;;;;;;4.43;3.47;;;;;;;18.67;33.05;96100.53;4977228;28;20050;-76
2023/04/10 10:55:23;;;;;;;3.03;2.78;;;;;;;19.78;30.78;96099.66;4977157;28;20373;-76
2023/04/10 10:57:56;;;;;;;2.63;2.40;;;;;;;19.24;32.07;96101.75;4976076;28;20026;-75
2023/04/10 11:00:23;;;;;;;2.15;2.00;;;;;;;19.15;32.38;96087.69;4977344;28;20062;-75
2023/04/10 11:03:07;;;;;;;2.50;2.30;;;;;;;19.26;31.98;96080.19;4973627;28;20057;-76
2023/04/10 11:05:57;;;;;;;4.25;2.83;;;;;;;19.22;32.12;96081.59;4976470;28;20022;-75
2023/04/10 11:08:31;;;;;;;2.20;2.10;;;;;;;19.02;32.28;96076.84;4976705;28;20054;-76
2023/04/10 11:11:04;;;;;;;2.53;2.33;;;;;;;19.08;31.02;96069.94;4968344;28;20034;-76
2023/04/10 11:13:30;;;;;;;2.40;2.20;;;;;;;18.71;31.21;96075.97;4970739;28;20271;-75
2023/04/10 11:15:57;;;;;;;2.35;2.15;;;;;;;18.66;32.35;96066.88;4957855;28;20054;-74
2023/04/10 11:18:44;;;;;;;2.28;2.17;;;;;;;18.66;32.06;96061.53;4974332;28;20026;-74
2023/04/10 11:21:14;;;;;;;3.08;2.15;;;;;;;19.23;31.21;96062.72;4976793;28;20498;-75
2023/04/10 11:23:51;;;;;;;2.03;1.92;;;;;;;18.95;31.31;96063.38;4969168;28;20052;-74
2023/04/10 11:26:44;;;;;;;1.80;1.70;;;;;;;19.08;30.19;96062.75;4976692;28;20706;-75
2023/04/10 11:29:13;;;;;;;2.25;1.88;;;;;;;18.78;30.60;96067.25;4973380;28;20401;-76
2023/04/10 11:31:39;;;;;;;3.45;2.00;;;;;;;18.92;30.12;96065.59;4973408;28;20434;-76
2023/04/10 11:34:05;;;;;;;2.05;1.95;;;;;;;18.48;31.85;96068.09;4969258;28;20050;-76
2023/04/10 11:36:33;;;;;;;1.80;1.70;;;;;;;18.82;30.46;96076.56;4964198;28;20554;-75
2023/04/10 11:39:12;;;;;;;1.48;1.38;;;;;;;18.80;30.37;96067.91;4958458;28;20073;-75